Time;durP1;ratioP1;P1;durP2;ratioP2;P2;SDS_P1;SDS_P2;PMS_P1;PMS_P2;Temp;Humidity;BMP_temperature;BMP_pressure;BME280_temperature;BME280_humidity;BME280_pressure;Samples;Min_cycle;Max_cycle;Signal;HPM_P1;HPM_P2
2023/10/25 00:01:20;;;;;;;46.97;29.83;;;;;;;;;;4966633;28;20034;-63
2023/10/25 00:03:46;;;;;;;49.08;30.33;;;;;;;;;;4964630;28;20114;-63
2023/10/25 00:06:11;;;;;;;46.92;28.60;;;;;;;;;;4965713;28;20027;-62
2023/10/25 00:08:37;;;;;;;48.17;28.40;;;;;;;;;;4965728;28;20094;-63
2023/10/25 00:11:07;;;;;;;42.92;27.25;;;;;;;;;;4964396;28;20030;-63
2023/10/25 00:13:34;;;;;;;40.88;27.63;;;;;;;;;;4965447;28;20478;-62
2023/10/25 00:15:59;;;;;;;40.97;27.38;;;;;;;;;;4966224;28;20031;-62
2023/10/25 00:18:26;;;;;;;39.78;25.70;;;;;;;;;;4964267;28;20027;-63
2023/10/25 00:20:52;;;;;;;40.65;26.20;;;;;;;;;;4965474;28;20031;-63
2023/10/25 00:23:19;;;;;;;42.42;26.67;;;;;;;;;;4965499;28;20019;-63
2023/10/25 00:25:44;;;;;;;42.10;25.40;;;;;;;;;;4964080;28;20476;-62
2023/10/25 00:28:11;;;;;;;43.42;26.88;;;;;;;;;;4962387;28;20043;-62
2023/10/25 00:30:37;;;;;;;39.92;26.23;;;;;;;;;;4974969;28;20472;-62
2023/10/25 00:33:02;;;;;;;42.03;27.35;;;;;;;;;;4975503;28;20030;-62
2023/10/25 00:35:27;;;;;;;41.95;27.23;;;;;;;;;;4960980;28;20035;-61
2023/10/25 00:37:53;;;;;;;42.45;27.40;;;;;;;;;;4968347;28;20070;-61
2023/10/25 00:40:18;;;;;;;42.70;26.23;;;;;;;;;;4975079;28;20031;-62
2023/10/25 00:42:44;;;;;;;44.47;26.95;;;;;;;;;;4975122;28;20022;-62
2023/10/25 00:45:09;;;;;;;42.65;25.70;;;;;;;;;;4974998;28;20030;-62
2023/10/25 00:47:35;;;;;;;45.05;26.42;;;;;;;;;;4974787;28;20019;-62
2023/10/25 00:50:01;;;;;;;38.30;24.45;;;;;;;;;;4974916;28;20027;-61
2023/10/25 00:52:26;;;;;;;41.90;25.95;;;;;;;;;;4974575;28;20030;-62
2023/10/25 00:54:52;;;;;;;44.53;26.73;;;;;;;;;;4974720;28;20038;-62
2023/10/25 00:57:18;;;;;;;45.30;27.90;;;;;;;;;;4974876;28;20113;-63
2023/10/25 00:59:43;;;;;;;42.15;27.23;;;;;;;;;;4974851;28;20035;-62
2023/10/25 01:02:11;;;;;;;41.60;26.45;;;;;;;;;;4974778;28;20486;-63
2023/10/25 01:04:36;;;;;;;43.38;27.10;;;;;;;;;;4974761;28;20492;-63
2023/10/25 01:07:02;;;;;;;42.50;26.42;;;;;;;;;;4974394;28;20062;-63
2023/10/25 01:09:30;;;;;;;44.42;27.65;;;;;;;;;;4974727;28;20069;-63
2023/10/25 01:11:56;;;;;;;45.40;27.58;;;;;;;;;;4974559;28;20081;-62
2023/10/25 01:14:26;;;;;;;44.70;27.13;;;;;;;;;;4974504;28;20137;-63
2023/10/25 01:16:52;;;;;;;40.58;25.65;;;;;;;;;;4973974;28;20042;-62
2023/10/25 01:19:17;;;;;;;37.92;24.60;;;;;;;;;;4973077;28;20030;-63
2023/10/25 01:21:43;;;;;;;38.42;24.40;;;;;;;;;;4974300;28;20019;-62
2023/10/25 01:24:09;;;;;;;38.83;25.38;;;;;;;;;;4974430;28;20030;-63
2023/10/25 01:26:35;;;;;;;46.72;28.02;;;;;;;;;;4972901;28;20042;-62
2023/10/25 01:29:00;;;;;;;48.10;28.00;;;;;;;;;;4973977;28;20051;-63
2023/10/25 01:31:26;;;;;;;47.33;28.80;;;;;;;;;;4974160;28;20062;-63
2023/10/25 01:33:51;;;;;;;50.47;28.65;;;;;;;;;;4973141;28;20023;-63
2023/10/25 01:36:17;;;;;;;44.15;28.17;;;;;;;;;;4954734;28;20383;-62
2023/10/25 01:38:43;;;;;;;42.05;26.08;;;;;;;;;;4974320;28;20023;-64
2023/10/25 01:41:15;;;;;;;41.58;26.50;;;;;;;;;;4974277;28;20035;-61
2023/10/25 01:43:41;;;;;;;35.55;23.88;;;;;;;;;;4974349;28;20527;-62
2023/10/25 01:46:07;;;;;;;34.03;24.33;;;;;;;;;;4974019;28;20114;-62
2023/10/25 01:48:32;;;;;;;34.05;22.92;;;;;;;;;;4974070;28;20034;-62
2023/10/25 01:50:57;;;;;;;35.53;24.58;;;;;;;;;;4973864;28;20333;-62
2023/10/25 01:53:23;;;;;;;35.30;23.33;;;;;;;;;;4973998;28;20058;-62
2023/10/25 01:55:50;;;;;;;33.22;23.27;;;;;;;;;;4974016;28;20130;-62
2023/10/25 01:58:16;;;;;;;33.90;22.75;;;;;;;;;;4973996;28;20081;-62
2023/10/25 02:00:41;;;;;;;31.75;22.83;;;;;;;;;;4973952;28;20058;-64
2023/10/25 02:03:07;;;;;;;34.13;22.63;;;;;;;;;;4973920;28;20373;-62
2023/10/25 02:05:32;;;;;;;31.75;22.30;;;;;;;;;;4973522;28;20039;-62
2023/10/25 02:07:58;;;;;;;28.92;21.10;;;;;;;;;;4973838;28;20475;-62
2023/10/25 02:10:23;;;;;;;32.85;22.83;;;;;;;;;;4974041;28;20086;-63
2023/10/25 02:12:49;;;;;;;36.33;22.27;;;;;;;;;;4973977;28;20064;-63
2023/10/25 02:15:14;;;;;;;31.15;21.52;;;;;;;;;;4974131;28;20350;-63
2023/10/25 02:17:40;;;;;;;30.83;22.23;;;;;;;;;;4974010;28;20532;-63
2023/10/25 02:20:06;;;;;;;29.70;21.45;;;;;;;;;;4973652;28;20030;-63
2023/10/25 02:22:31;;;;;;;32.05;22.23;;;;;;;;;;4973913;28;20034;-63
2023/10/25 02:24:57;;;;;;;29.92;21.75;;;;;;;;;;4973751;28;20380;-63
2023/10/25 02:27:22;;;;;;;32.13;21.98;;;;;;;;;;4973762;28;20073;-63
2023/10/25 02:29:49;;;;;;;32.58;22.27;;;;;;;;;;4977109;28;20047;-63
2023/10/25 02:32:14;;;;;;;31.35;21.65;;;;;;;;;;4977488;28;20543;-63
2023/10/25 02:34:40;;;;;;;30.90;21.88;;;;;;;;;;4969456;28;20023;-63
2023/10/25 02:37:05;;;;;;;35.88;23.67;;;;;;;;;;4964654;28;20026;-63
2023/10/25 02:39:31;;;;;;;34.88;23.35;;;;;;;;;;4977516;28;20511;-63
2023/10/25 02:41:57;;;;;;;33.75;22.83;;;;;;;;;;4977162;28;20027;-61
2023/10/25 02:44:22;;;;;;;33.15;21.95;;;;;;;;;;4977381;28;20027;-64
2023/10/25 02:46:48;;;;;;;33.90;22.67;;;;;;;;;;4977246;28;20022;-63
2023/10/25 02:49:13;;;;;;;34.35;22.98;;;;;;;;;;4976970;28;20038;-63
2023/10/25 02:51:38;;;;;;;30.88;21.23;;;;;;;;;;4977152;28;20022;-64
2023/10/25 02:54:04;;;;;;;31.20;21.35;;;;;;;;;;4977000;28;20023;-62
2023/10/25 02:56:30;;;;;;;29.42;20.95;;;;;;;;;;4977001;28;20062;-62
2023/10/25 02:58:55;;;;;;;37.03;24.58;;;;;;;;;;4976947;28;20031;-62
2023/10/25 03:01:24;;;;;;;32.20;22.17;;;;;;;;;;4976987;28;20026;-62
2023/10/25 03:03:51;;;;;;;32.75;23.30;;;;;;;;;;4976743;28;20464;-62
2023/10/25 03:06:16;;;;;;;32.85;22.73;;;;;;;;;;4976600;28;20026;-62
2023/10/25 03:08:42;;;;;;;33.67;23.08;;;;;;;;;;4976672;28;20435;-63
2023/10/25 03:11:07;;;;;;;33.92;23.30;;;;;;;;;;4976847;28;20047;-63
2023/10/25 03:13:33;;;;;;;37.25;23.08;;;;;;;;;;4976859;28;20109;-62
2023/10/25 03:15:58;;;;;;;37.00;22.85;;;;;;;;;;4976709;28;20058;-63
2023/10/25 03:18:23;;;;;;;36.40;23.00;;;;;;;;;;4976390;28;20080;-62
2023/10/25 03:20:49;;;;;;;34.90;22.08;;;;;;;;;;4976577;28;20101;-63
2023/10/25 03:23:14;;;;;;;33.45;22.50;;;;;;;;;;4976492;28;20090;-63
2023/10/25 03:25:40;;;;;;;33.35;22.05;;;;;;;;;;4976379;28;20058;-62
2023/10/25 03:28:05;;;;;;;32.58;21.92;;;;;;;;;;4975900;28;20479;-63
2023/10/25 03:30:31;;;;;;;33.80;22.25;;;;;;;;;;4976252;28;20109;-62
2023/10/25 03:32:56;;;;;;;34.47;21.35;;;;;;;;;;4976055;28;20030;-63
2023/10/25 03:35:22;;;;;;;33.22;19.95;;;;;;;;;;4962926;28;20030;-62
2023/10/25 03:37:47;;;;;;;32.30;19.63;;;;;;;;;;4969097;28;20078;-63
2023/10/25 03:40:13;;;;;;;33.38;20.20;;;;;;;;;;4975627;28;20499;-62
2023/10/25 03:42:39;;;;;;;33.53;19.70;;;;;;;;;;4975994;28;20078;-62
2023/10/25 03:45:06;;;;;;;32.92;19.20;;;;;;;;;;4976097;28;20023;-62
2023/10/25 03:47:34;;;;;;;30.05;17.98;;;;;;;;;;4975687;28;20062;-63
2023/10/25 03:50:01;;;;;;;30.52;18.35;;;;;;;;;;4976174;28;20086;-62
2023/10/25 03:52:27;;;;;;;26.25;16.70;;;;;;;;;;4976044;28;20038;-63
2023/10/25 03:54:52;;;;;;;32.40;17.52;;;;;;;;;;4975885;28;20392;-62
2023/10/25 03:57:18;;;;;;;29.98;17.58;;;;;;;;;;4975945;28;20420;-62
2023/10/25 03:59:43;;;;;;;33.83;17.50;;;;;;;;;;4975990;28;20023;-62
2023/10/25 04:02:08;;;;;;;28.80;16.55;;;;;;;;;;4975638;28;20038;-63
2023/10/25 04:04:34;;;;;;;29.50;15.77;;;;;;;;;;4975698;28;20465;-64
2023/10/25 04:07:00;;;;;;;33.20;17.02;;;;;;;;;;4975717;28;20041;-63
2023/10/25 04:09:25;;;;;;;29.40;16.52;;;;;;;;;;4975675;28;20030;-62
2023/10/25 04:11:50;;;;;;;32.40;17.33;;;;;;;;;;4975608;28;20054;-62
2023/10/25 04:14:16;;;;;;;28.25;15.48;;;;;;;;;;4975604;28;20066;-62
2023/10/25 04:16:41;;;;;;;34.72;16.05;;;;;;;;;;4975288;28;20030;-62
2023/10/25 04:19:07;;;;;;;28.33;16.30;;;;;;;;;;4975607;28;20026;-62
2023/10/25 04:21:32;;;;;;;28.70;15.43;;;;;;;;;;4975441;28;20392;-62
2023/10/25 04:23:58;;;;;;;30.48;15.63;;;;;;;;;;4975371;28;20044;-62
2023/10/25 04:26:23;;;;;;;29.73;15.65;;;;;;;;;;4975305;28;20419;-63
2023/10/25 04:28:49;;;;;;;28.00;14.60;;;;;;;;;;4973605;28;20445;-62
2023/10/25 04:31:16;;;;;;;25.45;14.32;;;;;;;;;;4974969;28;20027;-63
2023/10/25 04:33:42;;;;;;;22.80;14.10;;;;;;;;;;4975431;28;20030;-63
2023/10/25 04:36:07;;;;;;;27.08;15.00;;;;;;;;;;4955833;28;20170;-63
2023/10/25 04:38:33;;;;;;;24.77;13.27;;;;;;;;;;4974059;28;20035;-63
2023/10/25 04:40:59;;;;;;;27.38;15.32;;;;;;;;;;4975333;28;20019;-62
2023/10/25 04:43:25;;;;;;;24.98;12.98;;;;;;;;;;4974955;28;20057;-62
2023/10/25 04:45:53;;;;;;;25.15;13.00;;;;;;;;;;4974812;28;20465;-62
2023/10/25 04:48:18;;;;;;;25.73;13.73;;;;;;;;;;4974839;28;20101;-62
2023/10/25 04:50:44;;;;;;;21.90;11.93;;;;;;;;;;4974222;28;20199;-63
2023/10/25 04:53:09;;;;;;;21.42;11.85;;;;;;;;;;4974847;28;20026;-62
2023/10/25 04:55:36;;;;;;;22.45;11.80;;;;;;;;;;4974746;28;20019;-63
2023/10/25 04:58:03;;;;;;;25.35;13.60;;;;;;;;;;4974811;28;20041;-63
2023/10/25 05:00:29;;;;;;;24.45;14.02;;;;;;;;;;4974460;28;20027;-63
2023/10/25 05:02:56;;;;;;;24.58;12.68;;;;;;;;;;4974895;28;20032;-63
2023/10/25 05:05:21;;;;;;;25.60;13.85;;;;;;;;;;4974743;28;20034;-64
2023/10/25 05:07:47;;;;;;;27.63;13.57;;;;;;;;;;4974736;28;20023;-63
2023/10/25 05:10:13;;;;;;;26.15;13.48;;;;;;;;;;4974492;28;20372;-63
2023/10/25 05:12:46;;;;;;;24.45;12.93;;;;;;;;;;4974542;28;20038;-63
2023/10/25 05:15:14;;;;;;;27.33;15.27;;;;;;;;;;4974210;28;20053;-63
2023/10/25 05:17:42;;;;;;;23.20;13.90;;;;;;;;;;4974509;28;20104;-63
2023/10/25 05:20:08;;;;;;;25.05;14.02;;;;;;;;;;4974447;28;20034;-63
2023/10/25 05:22:35;;;;;;;24.80;14.40;;;;;;;;;;4974435;28;20022;-64
2023/10/25 05:25:02;;;;;;;28.80;19.83;;;;;;;;;;4974280;28;20053;-63
2023/10/25 05:27:28;;;;;;;22.73;13.60;;;;;;;;;;4973938;28;20034;-63
2023/10/25 05:29:53;;;;;;;26.63;14.45;;;;;;;;;;4973801;28;20026;-62
2023/10/25 05:32:20;;;;;;;19.95;13.45;;;;;;;;;;4974212;28;20038;-62
2023/10/25 05:34:48;;;;;;;22.00;12.65;;;;;;;;;;4965803;28;20419;-62
2023/10/25 05:37:15;;;;;;;19.55;13.23;;;;;;;;;;4962526;28;20120;-63
2023/10/25 05:39:42;;;;;;;21.95;13.20;;;;;;;;;;4973930;28;20026;-63
2023/10/25 05:42:08;;;;;;;23.17;13.63;;;;;;;;;;4973789;28;20030;-63
2023/10/25 05:44:34;;;;;;;22.23;14.32;;;;;;;;;;4973785;28;20081;-62
2023/10/25 05:46:59;;;;;;;24.73;15.68;;;;;;;;;;4973881;28;20066;-63
2023/10/25 05:49:25;;;;;;;22.73;14.18;;;;;;;;;;4973986;28;20031;-63
2023/10/25 05:51:51;;;;;;;22.50;12.95;;;;;;;;;;4974049;28;20106;-63
2023/10/25 05:54:16;;;;;;;23.73;13.07;;;;;;;;;;4973823;28;20023;-63
2023/10/25 05:56:42;;;;;;;22.42;13.20;;;;;;;;;;4973720;28;20496;-63
2023/10/25 05:59:08;;;;;;;20.98;12.48;;;;;;;;;;4973852;28;20460;-63
2023/10/25 06:01:51;;;;;;;24.55;13.65;;;;;;;;;;4974152;28;20037;-62
2023/10/25 06:04:19;;;;;;;22.63;12.85;;;;;;;;;;4977507;28;20121;-63
2023/10/25 06:06:45;;;;;;;24.58;13.23;;;;;;;;;;4977752;28;20031;-64
2023/10/25 06:09:11;;;;;;;22.60;12.80;;;;;;;;;;4977879;28;20113;-63
2023/10/25 06:11:38;;;;;;;25.83;12.13;;;;;;;;;;4977668;28;20027;-64
2023/10/25 06:14:04;;;;;;;26.23;13.23;;;;;;;;;;4977851;28;20054;-62
2023/10/25 06:16:30;;;;;;;30.60;13.73;;;;;;;;;;4977638;28;20054;-64
2023/10/25 06:18:56;;;;;;;30.75;13.98;;;;;;;;;;4977438;28;20035;-63
2023/10/25 06:21:21;;;;;;;29.70;13.40;;;;;;;;;;4977684;28;20030;-63
2023/10/25 06:23:47;;;;;;;31.40;12.40;;;;;;;;;;4977622;28;20026;-63
2023/10/25 06:26:12;;;;;;;38.08;15.90;;;;;;;;;;4977236;28;20082;-64
2023/10/25 06:28:37;;;;;;;34.70;13.90;;;;;;;;;;4977090;28;20094;-63
2023/10/25 06:31:03;;;;;;;38.45;18.20;;;;;;;;;;4977198;28;20105;-63
2023/10/25 06:33:28;;;;;;;47.92;20.73;;;;;;;;;;4977545;28;20031;-63
2023/10/25 06:35:59;;;;;;;56.53;20.92;;;;;;;;;;4959784;28;20031;-63
2023/10/25 06:38:26;;;;;;;40.03;17.52;;;;;;;;;;4975224;28;20388;-64
2023/10/25 06:40:51;;;;;;;30.13;14.23;;;;;;;;;;4977015;28;20514;-62
2023/10/25 06:43:17;;;;;;;29.58;13.52;;;;;;;;;;4977223;28;20054;-63
2023/10/25 06:45:45;;;;;;;26.65;12.75;;;;;;;;;;4972358;28;20471;-63
2023/10/25 06:48:11;;;;;;;27.25;11.45;;;;;;;;;;4966803;28;20058;-63
2023/10/25 06:50:37;;;;;;;23.25;10.68;;;;;;;;;;4972484;28;20030;-63
2023/10/25 06:53:02;;;;;;;23.42;12.00;;;;;;;;;;4976309;28;20066;-63
2023/10/25 06:55:28;;;;;;;23.48;11.77;;;;;;;;;;4977770;28;20063;-63
2023/10/25 06:57:54;;;;;;;19.27;10.60;;;;;;;;;;4990813;28;20026;-62
2023/10/25 07:00:20;;;;;;;23.20;11.75;;;;;;;;;;4981771;28;20030;-62
2023/10/25 07:03:01;;;;;;;21.85;10.82;;;;;;;;;;4984878;28;20054;-62
2023/10/25 07:05:29;;;;;;;19.17;10.25;;;;;;;;;;4971129;28;20452;-63
2023/10/25 07:07:55;;;;;;;20.00;10.07;;;;;;;;;;4957083;28;20043;-63
2023/10/25 07:10:21;;;;;;;18.30;10.27;;;;;;;;;;4957065;28;20054;-63
2023/10/25 07:12:47;;;;;;;17.52;10.35;;;;;;;;;;4957035;28;20031;-62
2023/10/25 07:15:13;;;;;;;17.30;10.32;;;;;;;;;;4956445;28;20035;-63
2023/10/25 07:17:39;;;;;;;19.30;9.68;;;;;;;;;;4957123;28;20058;-63
2023/10/25 07:20:12;;;;;;;20.40;10.15;;;;;;;;;;4960489;28;20074;-62
2023/10/25 07:22:38;;;;;;;20.40;10.25;;;;;;;;;;4976543;28;20031;-63
2023/10/25 07:25:07;;;;;;;19.02;11.27;;;;;;;;;;4976297;28;20027;-63
2023/10/25 07:27:33;;;;;;;16.33;9.48;;;;;;;;;;4975964;28;20038;-62
2023/10/25 07:29:58;;;;;;;17.92;9.73;;;;;;;;;;4970617;28;20038;-62
2023/10/25 07:32:24;;;;;;;19.73;10.20;;;;;;;;;;4965278;28;20024;-63
2023/10/25 07:34:49;;;;;;;18.77;11.18;;;;;;;;;;4985281;28;20034;-62
2023/10/25 07:37:15;;;;;;;20.08;10.75;;;;;;;;;;4976034;28;20059;-62
2023/10/25 07:39:41;;;;;;;19.45;11.05;;;;;;;;;;4975587;28;20031;-62
2023/10/25 07:42:07;;;;;;;19.40;10.38;;;;;;;;;;4975909;28;20061;-63
2023/10/25 07:44:33;;;;;;;23.35;12.02;;;;;;;;;;4975947;28;20063;-63
2023/10/25 07:46:58;;;;;;;17.17;10.57;;;;;;;;;;4975903;28;20031;-63
2023/10/25 07:49:24;;;;;;;17.63;11.38;;;;;;;;;;4975649;28;20073;-62
2023/10/25 07:51:49;;;;;;;17.13;9.30;;;;;;;;;;4975722;28;20026;-63
2023/10/25 07:54:14;;;;;;;17.25;9.90;;;;;;;;;;4975580;28;20098;-63
2023/10/25 07:56:40;;;;;;;17.63;11.18;;;;;;;;;;4975847;28;20109;-63
2023/10/25 07:59:05;;;;;;;20.25;10.60;;;;;;;;;;4975933;28;20380;-61
2023/10/25 08:01:31;;;;;;;15.10;9.80;;;;;;;;;;4975445;28;20588;-61
2023/10/25 08:03:56;;;;;;;17.20;10.38;;;;;;;;;;4975203;28;20026;-63
2023/10/25 08:06:22;;;;;;;17.65;10.98;;;;;;;;;;4975462;28;20030;-62
2023/10/25 08:08:50;;;;;;;18.23;10.48;;;;;;;;;;4975298;28;20035;-63
2023/10/25 08:11:16;;;;;;;15.43;10.25;;;;;;;;;;4975469;28;20026;-63
2023/10/25 08:13:43;;;;;;;19.17;10.55;;;;;;;;;;4975361;28;20540;-63
2023/10/25 08:16:08;;;;;;;15.95;9.88;;;;;;;;;;4975234;28;20039;-61
2023/10/25 08:18:34;;;;;;;18.80;10.65;;;;;;;;;;4975326;28;20494;-61
2023/10/25 08:20:59;;;;;;;17.88;10.38;;;;;;;;;;4975249;28;20035;-62
2023/10/25 08:23:25;;;;;;;18.23;10.48;;;;;;;;;;4975165;28;20034;-61
2023/10/25 08:25:51;;;;;;;19.08;10.38;;;;;;;;;;4974863;28;20034;-62
2023/10/25 08:28:17;;;;;;;22.33;14.10;;;;;;;;;;4974678;28;20039;-61
2023/10/25 08:30:43;;;;;;;15.25;9.88;;;;;;;;;;4963806;28;20036;-61
2023/10/25 08:33:08;;;;;;;18.88;10.18;;;;;;;;;;4955770;28;20042;-61
2023/10/25 08:35:34;;;;;;;14.30;9.25;;;;;;;;;;4970266;28;20027;-63
2023/10/25 08:37:59;;;;;;;15.38;10.18;;;;;;;;;;4974517;28;20069;-61
2023/10/25 08:40:25;;;;;;;16.45;10.57;;;;;;;;;;4974871;28;20084;-62
2023/10/25 08:42:50;;;;;;;16.95;10.00;;;;;;;;;;4974765;28;20456;-61
2023/10/25 08:45:16;;;;;;;14.88;9.30;;;;;;;;;;4974737;28;20027;-61
2023/10/25 08:47:42;;;;;;;15.27;9.65;;;;;;;;;;4974609;28;20376;-61
2023/10/25 08:50:08;;;;;;;16.70;9.77;;;;;;;;;;4974722;28;20035;-61
2023/10/25 08:52:36;;;;;;;16.80;9.50;;;;;;;;;;4974365;28;20042;-61
2023/10/25 08:55:03;;;;;;;14.18;8.77;;;;;;;;;;4974507;28;20027;-61
2023/10/25 08:57:30;;;;;;;12.90;9.15;;;;;;;;;;4974519;28;20038;-61
2023/10/25 08:59:55;;;;;;;12.90;7.95;;;;;;;;;;4974402;28;20058;-62
2023/10/25 09:02:21;;;;;;;14.50;8.60;;;;;;;;;;4974555;28;20051;-62
2023/10/25 09:04:57;;;;;;;12.63;8.35;;;;;;;;;;4968458;28;20469;-62
2023/10/25 09:07:27;;;;;;;12.52;8.25;;;;;;;;;;4966449;28;20038;-61
2023/10/25 09:09:53;;;;;;;;;;;;;;;;;;4974571;28;20496;-62
2023/10/25 09:12:19;;;;;;;15.32;8.73;;;;;;;;;;4974289;28;19914;-61
2023/10/25 09:14:46;;;;;;;10.27;6.90;;;;;;;;;;4974183;28;20097;-61
2023/10/25 09:17:11;;;;;;;11.50;8.05;;;;;;;;;;4974214;28;20041;-61
2023/10/25 09:19:36;;;;;;;10.40;7.50;;;;;;;;;;4973982;28;20034;-61
2023/10/25 09:22:26;;;;;;;11.25;7.53;;;;;;;;;;4973990;28;20101;-61
2023/10/25 09:24:58;;;;;;;13.63;8.23;;;;;;;;;;4974084;28;20046;-61
2023/10/25 09:27:25;;;;;;;13.35;8.95;;;;;;;;;;4973846;28;20073;-61
2023/10/25 09:29:50;;;;;;;14.20;8.95;;;;;;;;;;4969369;28;20481;-61
2023/10/25 09:32:20;;;;;;;11.65;8.60;;;;;;;;;;4954647;28;20036;-61
2023/10/25 09:34:47;;;;;;;16.35;9.23;;;;;;;;;;4962363;28;20031;-61
2023/10/25 09:37:13;;;;;;;12.90;8.80;;;;;;;;;;4961292;28;20039;-61
2023/10/25 09:39:39;;;;;;;13.93;9.50;;;;;;;;;;4973595;28;20064;-61
2023/10/25 09:42:07;;;;;;;12.55;8.02;;;;;;;;;;4973748;28;20114;-61
2023/10/25 09:44:40;;;;;;;11.80;8.13;;;;;;;;;;4973346;28;20042;-62
2023/10/25 09:47:10;;;;;;;11.23;7.18;;;;;;;;;;4973659;28;20026;-62
2023/10/25 09:49:41;;;;;;;13.23;7.35;;;;;;;;;;4973522;28;20034;-61
2023/10/25 09:52:11;;;;;;;11.38;7.68;;;;;;;;;;4973713;28;20405;-61
2023/10/25 09:54:41;;;;;;;12.97;7.83;;;;;;;;;;4973516;28;20023;-61
2023/10/25 09:57:07;;;;;;;;;;;;;;;;;;4974248;28;20671;-61
2023/10/25 09:59:33;;;;;;;10.38;7.43;;;;;;;;;;4973575;28;19922;-62
2023/10/25 10:02:06;;;;;;;9.65;7.07;;;;;;;;;;4973225;28;20053;-61
2023/10/25 10:04:45;;;;;;;15.02;7.53;;;;;;;;;;4973131;28;20537;-61
2023/10/25 10:07:40;;;;;;;9.48;7.03;;;;;;;;;;4973515;28;20035;-61
2023/10/25 10:10:31;;;;;;;12.73;8.65;;;;;;;;;;4973462;28;20034;-61
2023/10/25 10:12:57;;;;;;;11.85;6.75;;;;;;;;;;4973722;28;20106;-61
2023/10/25 10:16:01;;;;;;;10.32;7.18;;;;;;;;;;4973537;28;20082;-61
2023/10/25 10:18:49;;;;;;;9.48;6.78;;;;;;;;;;4973379;28;20023;-61
2023/10/25 10:21:15;;;;;;;9.52;6.72;;;;;;;;;;4973494;28;20069;-61
2023/10/25 10:23:49;;;;;;;10.02;6.85;;;;;;;;;;4973388;28;20030;-61
2023/10/25 10:26:43;;;;;;;13.52;8.20;;;;;;;;;;4973174;28;20046;-61
2023/10/25 10:29:48;;;;;;;12.48;7.07;;;;;;;;;;4972773;28;20404;-61
2023/10/25 10:32:14;;;;;;;9.90;6.82;;;;;;;;;;4932510;29;20039;-61
2023/10/25 10:34:56;;;;;;;10.80;7.07;;;;;;;;;;4932598;29;20107;-61
2023/10/25 10:37:24;;;;;;;12.52;6.80;;;;;;;;;;4932550;29;20044;-62
2023/10/25 10:39:55;;;;;;;10.82;7.95;;;;;;;;;;4932507;29;20043;-61
2023/10/25 10:42:25;;;;;;;12.90;7.05;;;;;;;;;;4918179;29;20051;-62
2023/10/25 10:44:51;;;;;;;12.32;7.70;;;;;;;;;;4913585;29;20043;-62
2023/10/25 10:47:21;;;;;;;12.35;7.22;;;;;;;;;;4913567;29;20083;-61
2023/10/25 10:49:56;;;;;;;11.23;7.35;;;;;;;;;;4899836;29;20040;-61
2023/10/25 10:52:22;;;;;;;8.90;6.30;;;;;;;;;;4917126;29;20032;-61
2023/10/25 10:54:47;;;;;;;10.30;7.32;;;;;;;;;;4925194;29;20028;-61
2023/10/25 10:57:14;;;;;;;12.13;7.05;;;;;;;;;;4936198;29;20046;-61
2023/10/25 10:59:49;;;;;;;9.85;6.55;;;;;;;;;;4936040;29;20417;-61
2023/10/25 11:02:16;;;;;;;8.85;6.55;;;;;;;;;;4944365;28;20424;-61
2023/10/25 11:04:42;;;;;;;13.88;7.47;;;;;;;;;;4976404;28;20477;-62
2023/10/25 11:07:07;;;;;;;10.43;6.75;;;;;;;;;;4976630;28;20023;-62
2023/10/25 11:09:33;;;;;;;10.65;6.70;;;;;;;;;;4975034;28;20121;-61
2023/10/25 11:12:14;;;;;;;8.27;6.15;;;;;;;;;;4976383;28;20090;-62
2023/10/25 11:14:44;;;;;;;9.30;5.90;;;;;;;;;;4975098;28;20026;-62
2023/10/25 11:17:10;;;;;;;;;;;;;;;;;;4976754;28;20432;-61
2023/10/25 11:19:35;;;;;;;8.88;6.55;;;;;;;;;;4976222;28;19914;-62
2023/10/25 11:22:01;;;;;;;8.43;6.53;;;;;;;;;;4976219;28;20396;-61
2023/10/25 11:24:27;;;;;;;13.57;6.30;;;;;;;;;;4976377;28;20023;-62
2023/10/25 11:26:53;;;;;;;14.55;9.80;;;;;;;;;;4976236;28;20463;-62
2023/10/25 11:29:20;;;;;;;9.63;7.03;;;;;;;;;;4975962;28;20421;-63
2023/10/25 11:31:49;;;;;;;9.82;7.03;;;;;;;;;;4975963;28;20067;-62
2023/10/25 11:34:19;;;;;;;13.20;6.85;;;;;;;;;;4976029;28;20019;-62
2023/10/25 11:36:46;;;;;;;12.30;7.03;;;;;;;;;;4974670;28;20034;-62
2023/10/25 11:39:11;;;;;;;8.88;6.75;;;;;;;;;;4976172;28;20124;-61
2023/10/25 11:41:37;;;;;;;8.40;6.90;;;;;;;;;;4975709;28;20105;-64
2023/10/25 11:44:02;;;;;;;16.23;6.85;;;;;;;;;;4975914;28;20022;-64
2023/10/25 11:46:36;;;;;;;10.45;7.10;;;;;;;;;;4975796;28;20027;-64
2023/10/25 11:49:03;;;;;;;9.45;6.75;;;;;;;;;;4974532;28;20023;-63
2023/10/25 11:51:28;;;;;;;11.18;6.18;;;;;;;;;;4975700;28;20077;-63
2023/10/25 11:53:53;;;;;;;11.40;7.65;;;;;;;;;;4975537;28;20122;-64
2023/10/25 11:56:22;;;;;;;8.13;5.80;;;;;;;;;;4976002;28;20480;-63
2023/10/25 11:58:47;;;;;;;7.28;5.85;;;;;;;;;;4975827;28;20034;-64
2023/10/25 12:01:13;;;;;;;13.25;6.90;;;;;;;;;;4975182;28;20038;-63
2023/10/25 12:03:40;;;;;;;14.20;6.97;;;;;;;;;;4975415;28;20027;-63
2023/10/25 12:06:06;;;;;;;8.10;6.20;;;;;;;;;;4975524;28;20034;-64
2023/10/25 12:08:31;;;;;;;10.02;6.70;;;;;;;;;;4974152;28;20375;-63
2023/10/25 12:10:57;;;;;;;10.68;6.40;;;;;;;;;;4975724;28;20098;-64
2023/10/25 12:13:22;;;;;;;9.63;6.53;;;;;;;;;;4975523;28;20022;-64
2023/10/25 12:15:48;;;;;;;10.63;6.40;;;;;;;;;;4974941;28;20046;-65
2023/10/25 12:18:13;;;;;;;7.72;6.25;;;;;;;;;;4974205;28;20033;-64
2023/10/25 12:20:38;;;;;;;11.80;7.03;;;;;;;;;;4975289;28;20376;-65
2023/10/25 12:23:04;;;;;;;10.00;6.53;;;;;;;;;;4975413;28;20027;-64
2023/10/25 12:25:30;;;;;;;12.02;6.90;;;;;;;;;;4975319;28;20019;-65
2023/10/25 12:27:56;;;;;;;9.57;6.68;;;;;;;;;;4974419;28;20042;-64
2023/10/25 12:30:22;;;;;;;12.98;7.32;;;;;;;;;;4966885;28;20507;-64
2023/10/25 12:32:50;;;;;;;10.75;7.47;;;;;;;;;;4955669;28;20111;-64
2023/10/25 12:35:16;;;;;;;10.70;6.50;;;;;;;;;;4967823;28;20026;-64
2023/10/25 12:37:41;;;;;;;11.32;6.72;;;;;;;;;;4974928;28;20049;-64
2023/10/25 12:40:08;;;;;;;14.25;6.75;;;;;;;;;;4974963;28;20499;-65
2023/10/25 12:42:33;;;;;;;9.50;6.13;;;;;;;;;;4974814;28;20380;-64
2023/10/25 12:44:59;;;;;;;10.48;6.20;;;;;;;;;;4974817;28;20038;-64
2023/10/25 12:47:24;;;;;;;10.57;6.50;;;;;;;;;;4974772;28;20019;-65
2023/10/25 12:49:50;;;;;;;11.65;6.70;;;;;;;;;;4974723;28;20476;-64
2023/10/25 12:52:15;;;;;;;9.25;6.03;;;;;;;;;;4974822;28;20396;-64
2023/10/25 12:54:41;;;;;;;11.95;6.35;;;;;;;;;;4974625;28;20035;-64
2023/10/25 12:57:06;;;;;;;10.60;6.47;;;;;;;;;;4974753;28;20102;-64
2023/10/25 12:59:32;;;;;;;11.55;6.78;;;;;;;;;;4974567;28;20054;-65
2023/10/25 13:01:57;;;;;;;16.30;7.72;;;;;;;;;;4974478;28;20077;-64
2023/10/25 13:04:22;;;;;;;17.02;7.40;;;;;;;;;;4974474;28;20122;-64
2023/10/25 13:06:48;;;;;;;12.00;6.68;;;;;;;;;;4974510;28;20586;-65
2023/10/25 13:09:13;;;;;;;15.43;6.75;;;;;;;;;;4974288;28;20053;-64
2023/10/25 13:11:39;;;;;;;13.73;6.53;;;;;;;;;;4973403;28;20473;-64
2023/10/25 13:14:04;;;;;;;11.85;6.80;;;;;;;;;;4974093;28;20023;-64
2023/10/25 13:16:31;;;;;;;13.18;7.07;;;;;;;;;;4974128;28;20030;-64
2023/10/25 13:18:57;;;;;;;13.75;6.40;;;;;;;;;;4974193;28;20109;-64
2023/10/25 13:21:22;;;;;;;8.73;5.95;;;;;;;;;;4974294;28;20110;-64
2023/10/25 13:23:50;;;;;;;9.38;6.72;;;;;;;;;;4974016;28;20420;-65
2023/10/25 13:26:16;;;;;;;10.32;6.25;;;;;;;;;;4973947;28;20485;-64
2023/10/25 13:28:41;;;;;;;11.73;7.93;;;;;;;;;;4973707;28;20147;-63
2023/10/25 13:31:07;;;;;;;12.82;8.13;;;;;;;;;;4959818;28;20035;-62
2023/10/25 13:33:33;;;;;;;12.55;7.80;;;;;;;;;;4954684;28;20465;-63
2023/10/25 13:35:58;;;;;;;13.55;8.75;;;;;;;;;;4972496;28;20037;-63
2023/10/25 13:38:24;;;;;;;11.95;8.57;;;;;;;;;;4973688;28;20049;-63
2023/10/25 13:40:49;;;;;;;12.60;7.63;;;;;;;;;;4973647;28;20150;-62
2023/10/25 13:43:15;;;;;;;10.57;8.18;;;;;;;;;;4973866;28;20035;-62
2023/10/25 13:45:42;;;;;;;11.27;7.57;;;;;;;;;;4973696;28;20035;-62
2023/10/25 13:48:07;;;;;;;11.35;8.20;;;;;;;;;;4973623;28;20038;-63
2023/10/25 13:50:32;;;;;;;15.23;7.95;;;;;;;;;;4973712;28;20037;-63
2023/10/25 13:52:58;;;;;;;19.63;9.55;;;;;;;;;;4973607;28;20033;-63
2023/10/25 13:55:23;;;;;;;15.25;7.50;;;;;;;;;;4973378;28;20031;-63
2023/10/25 13:57:49;;;;;;;13.68;7.82;;;;;;;;;;4972170;28;20117;-63
2023/10/25 14:00:14;;;;;;;10.57;7.70;;;;;;;;;;4972431;28;20054;-63
2023/10/25 14:02:43;;;;;;;12.07;7.60;;;;;;;;;;4973603;28;20384;-62
2023/10/25 14:05:10;;;;;;;20.42;7.93;;;;;;;;;;4973594;28;20030;-62
2023/10/25 14:07:36;;;;;;;15.77;7.32;;;;;;;;;;4973472;28;20023;-62
2023/10/25 14:10:02;;;;;;;12.77;7.18;;;;;;;;;;4973235;28;20375;-63
2023/10/25 14:12:29;;;;;;;7.75;6.22;;;;;;;;;;4973310;28;20022;-62
2023/10/25 14:14:55;;;;;;;16.52;7.03;;;;;;;;;;4973025;28;20391;-63
2023/10/25 14:17:21;;;;;;;9.82;6.25;;;;;;;;;;4953741;28;20027;-63
2023/10/25 14:19:46;;;;;;;6.93;6.13;;;;;;;;;;4954606;28;20055;-63
2023/10/25 14:22:12;;;;;;;17.45;8.93;;;;;;;;;;4954487;28;20122;-63